createdAt,value
2023-05-02T00:00:02.000Z,97.039795
2023-05-02T00:01:10.275Z,96.838379
2023-05-02T00:02:19.973Z,97.039795
2023-05-02T00:03:29.651Z,96.838379
2023-05-02T00:04:39.385Z,96.429443
2023-05-02T00:05:47.975Z,96.5271
2023-05-02T00:06:56.713Z,96.777344
2023-05-02T00:08:06.344Z,96.936035
2023-05-02T00:09:16.000Z,96.5271
2023-05-02T00:10:25.656Z,96.630859
2023-05-02T00:11:33.338Z,96.734619
2023-05-02T00:12:41.003Z,96.984863
2023-05-02T00:13:49.641Z,96.936035
2023-05-02T00:14:58.285Z,96.630859
2023-05-02T00:16:08.048Z,96.734619
2023-05-02T00:17:17.665Z,96.5271
2023-05-02T00:18:27.276Z,97.039795
2023-05-02T00:19:36.952Z,96.630859
2023-05-02T00:20:45.601Z,96.630859
2023-05-02T00:21:54.280Z,96.575928
2023-05-02T00:23:03.929Z,96.881104
2023-05-02T00:24:13.567Z,96.575928
2023-05-02T00:25:22.232Z,96.984863
2023-05-02T00:26:31.915Z,96.777344
2023-05-02T00:27:41.562Z,96.679688
2023-05-02T00:28:51.219Z,96.575928
2023-05-02T00:29:59.024Z,96.472168
2023-05-02T00:31:06.546Z,96.679688
2023-05-02T00:32:16.235Z,96.984863
2023-05-02T00:33:24.880Z,96.777344
2023-05-02T00:34:33.516Z,96.472168
2023-05-02T00:35:43.183Z,96.270752
2023-05-02T00:36:51.841Z,96.270752
2023-05-02T00:38:01.581Z,96.575928
2023-05-02T00:39:09.222Z,96.270752
2023-05-02T00:40:17.860Z,96.618652
2023-05-02T00:41:27.523Z,96.777344
2023-05-02T00:42:37.170Z,96.472168
2023-05-02T00:43:45.815Z,96.313477
2023-05-02T00:44:54.465Z,96.514893
2023-05-02T00:46:03.150Z,96.270752
2023-05-02T00:47:12.770Z,96.270752
2023-05-02T00:48:20.430Z,96.472168
2023-05-02T00:49:29.066Z,96.166992
2023-05-02T00:50:38.712Z,96.112061
2023-05-02T00:51:48.406Z,96.209717
2023-05-02T00:52:57.028Z,96.826172
2023-05-02T00:54:05.665Z,96.826172
2023-05-02T00:55:14.294Z,96.112061
2023-05-02T00:56:23.953Z,96.514893
2023-05-02T00:57:31.593Z,96.514893
2023-05-02T00:58:39.234Z,96.417236
2023-05-02T00:59:48.867Z,96.313477
2023-05-02T01:00:57.506Z,96.209717
2023-05-02T01:02:07.221Z,96.209717
2023-05-02T01:03:15.858Z,96.112061
2023-05-02T01:04:24.436Z,96.417236
2023-05-02T01:05:34.249Z,96.417236
2023-05-02T01:06:42.093Z,96.514893
2023-05-02T01:07:51.736Z,96.356201
2023-05-02T01:09:01.349Z,96.722412
2023-05-02T01:10:09.993Z,96.313477
2023-05-02T01:11:18.703Z,96.459961
2023-05-02T01:12:28.342Z,96.459961
2023-05-02T01:13:36.989Z,96.356201
2023-05-02T01:14:46.626Z,96.66748
2023-05-02T01:15:55.345Z,96.356201
2023-05-02T01:17:03.988Z,96.258545
2023-05-02T01:18:13.830Z,96.459961
2023-05-02T01:19:22.414Z,96.563721
2023-05-02T01:20:31.059Z,96.154785
2023-05-02T01:21:39.753Z,96.051025
2023-05-02T01:22:49.426Z,96.459961
2023-05-02T01:23:59.103Z,96.356201
2023-05-02T01:25:08.730Z,96.051025
2023-05-02T01:26:17.417Z,95.947266
2023-05-02T01:27:27.064Z,96.258545
2023-05-02T01:28:35.705Z,96.66748
2023-05-02T01:29:44.338Z,96.356201
2023-05-02T01:30:54.025Z,96.356201
2023-05-02T01:32:02.749Z,96.30127
2023-05-02T01:33:12.436Z,96.917725
2023-05-02T01:34:22.050Z,96.813965
2023-05-02T01:35:29.685Z,96.606445
2023-05-02T01:36:39.391Z,96.66748
2023-05-02T01:37:48.043Z,96.30127
2023-05-02T01:38:56.694Z,96.154785
2023-05-02T01:40:05.394Z,96.459961
2023-05-02T01:41:14.085Z,96.30127
2023-05-02T01:42:23.754Z,96.099854
2023-05-02T01:43:32.390Z,96.710205
2023-05-02T01:44:41.040Z,96.710205
2023-05-02T01:45:50.741Z,96.606445
2023-05-02T01:47:00.435Z,96.154785
2023-05-02T01:48:10.033Z,96.154785
2023-05-02T01:49:18.663Z,95.892334
2023-05-02T01:50:27.297Z,95.947266
2023-05-02T01:51:36.975Z,96.30127
2023-05-02T01:52:44.613Z,96.258545
2023-05-02T01:53:52.266Z,95.996094
2023-05-02T01:55:01.933Z,95.996094
2023-05-02T01:56:11.618Z,96.405029
2023-05-02T01:57:21.254Z,96.30127
2023-05-02T01:58:28.891Z,96.508789
2023-05-02T01:59:37.527Z,96.606445
2023-05-02T02:00:47.179Z,96.710205
2023-05-02T02:01:56.843Z,96.813965
2023-05-02T02:03:05.509Z,96.813965
2023-05-02T02:04:15.160Z,96.813965
2023-05-02T02:05:24.805Z,96.710205
2023-05-02T02:06:34.498Z,96.606445
2023-05-02T02:07:44.111Z,96.917725
2023-05-02T02:08:53.758Z,96.30127
2023-05-02T02:10:01.620Z,96.606445
2023-05-02T02:11:11.157Z,96.710205
2023-05-02T02:12:20.887Z,96.30127
2023-05-02T02:13:30.522Z,96.30127
2023-05-02T02:14:40.159Z,96.813965
2023-05-02T02:15:49.811Z,96.606445
2023-05-02T02:16:59.527Z,96.813965
2023-05-02T02:18:07.190Z,96.710205
2023-05-02T02:19:14.766Z,96.563721
2023-05-02T02:20:24.428Z,96.19751
2023-05-02T02:21:33.077Z,96.19751
2023-05-02T02:22:42.794Z,96.508789
2023-05-02T02:23:51.486Z,96.099854
2023-05-02T02:25:01.215Z,96.099854
2023-05-02T02:26:10.859Z,96.30127
2023-05-02T02:27:18.501Z,96.051025
2023-05-02T02:28:27.169Z,95.996094
2023-05-02T02:29:36.798Z,96.30127
2023-05-02T02:30:45.437Z,96.099854
2023-05-02T02:31:55.108Z,95.996094
2023-05-02T02:33:04.759Z,96.19751
2023-05-02T02:34:13.377Z,96.405029
2023-05-02T02:35:23.019Z,96.30127
2023-05-02T02:36:32.662Z,96.405029
2023-05-02T02:37:40.345Z,96.099854
2023-05-02T02:38:49.995Z,96.30127
2023-05-02T02:39:58.711Z,96.19751
2023-05-02T02:41:06.280Z,96.19751
2023-05-02T02:42:13.946Z,96.30127
2023-05-02T02:43:23.646Z,96.30127
2023-05-02T02:44:33.335Z,96.30127
2023-05-02T02:45:41.947Z,96.30127
2023-05-02T02:46:49.581Z,96.246338
2023-05-02T02:47:59.289Z,95.996094
2023-05-02T02:49:08.888Z,95.996094
2023-05-02T02:50:17.531Z,96.099854
2023-05-02T02:51:26.179Z,95.690918
2023-05-02T02:52:35.834Z,95.996094
2023-05-02T02:53:45.480Z,96.038818
2023-05-02T02:54:54.122Z,96.447754
2023-05-02T02:56:03.763Z,96.099854
2023-05-02T02:57:13.433Z,95.837402
2023-05-02T02:58:23.080Z,95.935059
2023-05-02T02:59:31.715Z,96.038818
2023-05-02T03:00:40.378Z,96.246338
2023-05-02T03:01:49.038Z,95.996094
2023-05-02T03:02:58.722Z,96.142578
2023-05-02T03:04:06.347Z,95.935059
2023-05-02T03:05:14.950Z,95.892334
2023-05-02T03:06:24.620Z,95.733643
2023-05-02T03:07:33.289Z,96.142578
2023-05-02T03:08:41.919Z,96.246338
2023-05-02T03:09:50.631Z,96.343994
2023-05-02T03:11:00.261Z,95.935059
2023-05-02T03:12:09.969Z,96.246338
2023-05-02T03:13:19.599Z,95.935059
2023-05-02T03:14:27.231Z,96.142578
2023-05-02T03:15:36.881Z,96.343994
2023-05-02T03:16:46.595Z,96.142578
2023-05-02T03:17:55.220Z,96.246338
2023-05-02T03:19:04.857Z,96.246338
2023-05-02T03:20:13.490Z,96.246338
2023-05-02T03:21:23.137Z,96.038818
2023-05-02T03:22:30.824Z,96.142578
2023-05-02T03:23:37.455Z,96.038818
2023-05-02T03:24:47.089Z,96.30127
2023-05-02T03:25:55.722Z,95.690918
2023-05-02T03:27:05.553Z,95.483398
2023-05-02T03:28:13.185Z,95.587158
2023-05-02T03:29:21.820Z,95.788574
2023-05-02T03:30:31.460Z,95.428467
2023-05-02T03:31:41.140Z,95.935059
2023-05-02T03:32:49.838Z,95.629883
2023-05-02T03:33:59.467Z,96.038818
2023-05-02T03:35:09.066Z,96.142578
2023-05-02T03:36:18.705Z,95.837402
2023-05-02T03:37:27.372Z,95.837402
2023-05-02T03:38:35.001Z,95.629883
2023-05-02T03:39:45.645Z,95.733643
2023-05-02T03:40:54.301Z,96.246338
2023-05-02T03:42:01.904Z,95.935059
2023-05-02T03:43:10.587Z,96.038818
2023-05-02T03:44:20.243Z,96.142578
2023-05-02T03:45:28.890Z,95.526123
2023-05-02T03:46:37.624Z,95.733643
2023-05-02T03:47:47.375Z,95.837402
2023-05-02T03:48:56.988Z,95.733643
2023-05-02T03:50:05.603Z,95.428467
2023-05-02T03:51:13.253Z,95.324707
2023-05-02T03:52:22.908Z,95.324707
2023-05-02T03:53:32.574Z,95.526123
2023-05-02T03:54:42.200Z,94.970703
2023-05-02T03:55:50.844Z,94.915771
2023-05-02T03:56:59.479Z,95.379639
2023-05-02T03:58:07.131Z,95.220947
2023-05-02T03:59:16.779Z,95.324707
2023-05-02T04:00:25.464Z,95.019531
2023-05-02T04:01:35.163Z,95.117188
2023-05-02T04:02:43.870Z,94.915771
2023-05-02T04:03:53.501Z,95.324707
2023-05-02T04:05:03.146Z,95.629883
2023-05-02T04:06:12.849Z,95.117188
2023-05-02T04:07:21.487Z,95.629883
2023-05-02T04:08:31.190Z,95.526123
2023-05-02T04:09:39.830Z,95.526123
2023-05-02T04:10:48.506Z,95.117188
2023-05-02T04:11:57.169Z,95.117188
2023-05-02T04:13:05.850Z,95.220947
2023-05-02T04:14:15.502Z,95.324707
2023-05-02T04:15:23.163Z,95.220947
2023-05-02T04:16:31.867Z,95.220947
2023-05-02T04:17:41.778Z,95.220947
2023-05-02T04:18:50.436Z,95.117188
2023-05-02T04:20:00.515Z,95.526123
2023-05-02T04:21:09.735Z,94.915771
2023-05-02T04:22:18.385Z,95.019531
2023-05-02T04:23:28.054Z,95.019531
2023-05-02T04:24:35.739Z,95.019531
2023-05-02T04:25:44.365Z,95.220947
2023-05-02T04:26:53.013Z,95.324707
2023-05-02T04:28:02.676Z,95.117188
2023-05-02T04:29:12.328Z,95.220947
2023-05-02T04:30:20.987Z,95.324707
2023-05-02T04:31:30.729Z,95.526123
2023-05-02T04:32:40.340Z,95.526123
2023-05-02T04:33:48.973Z,95.526123
2023-05-02T04:34:58.600Z,95.428467
2023-05-02T04:36:09.249Z,95.733643
2023-05-02T04:37:18.969Z,95.837402
2023-05-02T04:38:27.617Z,96.038818
2023-05-02T04:39:37.263Z,95.629883
2023-05-02T04:40:45.918Z,95.526123
2023-05-02T04:41:55.566Z,95.019531
2023-05-02T04:43:03.253Z,95.629883
2023-05-02T04:44:11.903Z,95.281982
2023-05-02T04:45:21.573Z,95.379639
2023-05-02T04:46:30.223Z,95.074463
2023-05-02T04:47:39.889Z,94.970703
2023-05-02T04:48:49.619Z,95.178223
2023-05-02T04:49:58.505Z,95.129395
2023-05-02T04:51:07.937Z,94.622803
2023-05-02T04:52:15.586Z,94.726562
2023-05-02T04:53:25.280Z,94.970703
2023-05-02T04:54:34.910Z,95.233154
2023-05-02T04:55:43.535Z,95.178223
2023-05-02T04:56:52.238Z,94.824219
2023-05-02T04:58:01.868Z,95.031738
2023-05-02T04:59:11.514Z,94.726562
2023-05-02T05:00:21.165Z,94.726562
2023-05-02T05:01:28.865Z,94.622803
2023-05-02T05:02:37.557Z,95.129395
2023-05-02T05:03:47.339Z,94.824219
2023-05-02T05:04:56.919Z,95.031738
2023-05-02T05:06:05.548Z,95.031738
2023-05-02T05:07:14.185Z,94.622803
2023-05-02T05:08:23.848Z,94.622803
2023-05-02T05:09:33.511Z,95.233154
2023-05-02T05:10:42.123Z,94.927979
2023-05-02T05:11:49.785Z,94.98291
2023-05-02T05:12:59.439Z,94.476318
2023-05-02T05:14:08.089Z,94.580078
2023-05-02T05:15:17.760Z,94.171143
2023-05-02T05:16:26.440Z,94.580078
2023-05-02T05:17:36.063Z,94.677734
2023-05-02T05:18:45.729Z,94.781494
2023-05-02T05:19:53.391Z,94.171143
2023-05-02T05:21:02.071Z,94.372559
2023-05-02T05:22:11.743Z,94.317627
2023-05-02T05:23:20.385Z,94.476318
2023-05-02T05:24:29.046Z,94.476318
2023-05-02T05:25:37.722Z,94.885254
2023-05-02T05:26:46.349Z,94.476318
2023-05-02T05:27:55.997Z,94.329834
2023-05-02T05:29:03.670Z,93.963623
2023-05-02T05:30:12.366Z,93.920898
2023-05-02T05:31:22.000Z,94.226074
2023-05-02T05:32:30.667Z,93.859863
2023-05-02T05:33:39.495Z,93.554688
2023-05-02T05:34:48.126Z,94.329834
2023-05-02T05:35:57.774Z,94.024658
2023-05-02T05:37:07.445Z,93.615723
2023-05-02T05:38:15.095Z,93.920898
2023-05-02T05:39:23.783Z,94.329834
2023-05-02T05:40:33.453Z,93.817139
2023-05-02T05:41:43.142Z,94.122314
2023-05-02T05:42:52.758Z,93.920898
2023-05-02T05:44:01.444Z,94.122314
2023-05-02T05:45:10.093Z,93.920898
2023-05-02T05:46:19.752Z,93.713379
2023-05-02T05:47:28.522Z,93.713379
2023-05-02T05:48:36.067Z,93.310547
2023-05-02T05:49:45.763Z,93.145752
2023-05-02T05:50:54.445Z,93.817139
2023-05-02T05:52:04.153Z,93.408203
2023-05-02T05:53:13.894Z,93.103027
2023-05-02T05:54:22.545Z,93.511963
2023-05-02T05:55:32.223Z,93.713379
2023-05-02T05:56:42.899Z,93.713379
2023-05-02T05:57:52.575Z,93.817139
2023-05-02T05:59:01.227Z,93.365479
2023-05-02T06:00:10.344Z,93.164062
2023-05-02T06:01:19.981Z,92.797852
2023-05-02T06:02:29.715Z,93.261719
2023-05-02T06:03:39.441Z,93.060303
2023-05-02T06:04:47.107Z,93.261719
2023-05-02T06:05:56.702Z,93.121338
2023-05-02T06:07:05.361Z,92.913818
2023-05-02T06:08:15.018Z,92.767334
2023-05-02T06:09:24.693Z,91.894531
2023-05-02T06:10:33.426Z,92.504883
2023-05-02T06:11:42.070Z,93.121338
2023-05-02T06:12:49.710Z,93.07251
2023-05-02T06:13:59.392Z,92.565918
2023-05-02T06:15:09.065Z,92.156982
2023-05-02T06:16:18.780Z,91.851807
2023-05-02T06:17:27.392Z,92.053223
2023-05-02T06:18:36.092Z,92.053223
2023-05-02T06:19:45.771Z,91.809082
2023-05-02T06:20:55.411Z,91.546631
2023-05-02T06:22:03.076Z,92.114258
2023-05-02T06:23:11.739Z,91.607666
2023-05-02T06:24:21.479Z,91.650391
2023-05-02T06:25:30.127Z,92.010498
2023-05-02T06:26:38.840Z,91.766357
2023-05-02T06:27:47.489Z,91.052246
2023-05-02T06:28:57.115Z,90.85083
2023-05-02T06:30:06.809Z,91.30249
2023-05-02T06:31:15.480Z,91.259766
2023-05-02T06:32:23.112Z,90.85083
2023-05-02T06:33:32.773Z,90.240479
2023-05-02T06:34:41.427Z,89.831543
2023-05-02T06:35:50.104Z,90.283203
2023-05-02T06:36:59.762Z,90.338135
2023-05-02T06:38:09.425Z,90.643311
2023-05-02T06:39:19.077Z,90.032959
2023-05-02T06:40:27.804Z,90.29541
2023-05-02T06:41:36.454Z,90.093994
2023-05-02T06:42:46.120Z,89.544678
2023-05-02T06:43:54.768Z,89.239502
2023-05-02T06:45:04.447Z,89.031982
2023-05-02T06:46:13.146Z,88.830566
2023-05-02T06:47:21.820Z,88.62915
2023-05-02T06:48:31.419Z,88.769531
2023-05-02T06:49:40.091Z,87.957764
2023-05-02T06:50:48.807Z,87.957764
2023-05-02T06:51:58.457Z,88.323975
2023-05-02T06:53:07.111Z,88.116455
2023-05-02T06:54:15.795Z,87.872314
2023-05-02T06:55:25.496Z,88.482666
2023-05-02T06:56:34.146Z,88.079834
2023-05-02T06:57:43.825Z,88.134766
2023-05-02T06:58:52.483Z,87.689209
2023-05-02T07:00:01.444Z,86.407471
2023-05-02T07:01:10.881Z,86.816406
2023-05-02T07:02:20.522Z,87.426758
2023-05-02T07:03:30.156Z,87.225342
2023-05-02T07:04:39.876Z,87.322998
2023-05-02T07:05:48.497Z,87.017822
2023-05-02T07:06:58.186Z,86.712646
2023-05-02T07:08:06.816Z,86.51123
2023-05-02T07:09:14.436Z,86.859131
2023-05-02T07:10:24.209Z,86.553955
2023-05-02T07:11:32.845Z,86.553955
2023-05-02T07:12:41.492Z,86.553955
2023-05-02T07:13:50.132Z,86.816406
2023-05-02T07:14:59.772Z,87.078857
2023-05-02T07:16:09.511Z,86.065674
2023-05-02T07:17:19.108Z,86.431885
2023-05-02T07:18:27.818Z,85.656738
2023-05-02T07:19:37.515Z,85.150146
2023-05-02T07:20:48.196Z,85.046387
2023-05-02T07:21:57.851Z,85.900879
2023-05-02T07:23:07.524Z,86.572266
2023-05-02T07:24:17.176Z,86.126709
2023-05-02T07:25:26.875Z,85.272217
2023-05-02T07:26:35.527Z,85.620117
2023-05-02T07:27:44.236Z,85.107422
2023-05-02T07:28:53.883Z,84.906006
2023-05-02T07:30:03.182Z,84.802246
2023-05-02T07:31:13.613Z,84.399414
2023-05-02T07:32:24.328Z,84.661865
2023-05-02T07:33:32.931Z,84.423828
2023-05-02T07:34:42.575Z,83.612061
2023-05-02T07:35:52.254Z,83.239746
2023-05-02T07:37:00.915Z,83.850098
2023-05-02T07:38:10.554Z,84.356689
2023-05-02T07:39:20.225Z,84.197998
2023-05-02T07:40:29.898Z,84.60083
2023-05-02T07:41:38.562Z,84.295654
2023-05-02T07:42:48.208Z,84.802246
2023-05-02T07:43:57.866Z,84.155273
2023-05-02T07:45:06.526Z,84.765625
2023-05-02T07:46:14.230Z,83.953857
2023-05-02T07:47:23.853Z,83.508301
2023-05-02T07:48:33.502Z,83.306885
2023-05-02T07:49:43.184Z,83.465576
2023-05-02T07:50:52.878Z,83.673096
2023-05-02T07:52:01.569Z,82.354736
2023-05-02T07:53:11.222Z,82.757568
2023-05-02T07:54:19.862Z,82.659912
2023-05-02T07:55:28.745Z,82.312012
2023-05-02T07:56:37.416Z,82.720947
2023-05-02T07:57:46.066Z,82.720947
2023-05-02T07:58:55.719Z,81.872559
2023-05-02T08:00:04.559Z,81.872559
2023-05-02T08:01:13.070Z,81.060791
2023-05-02T08:02:21.802Z,81.768799
2023-05-02T08:03:30.508Z,81.500244
2023-05-02T08:04:39.071Z,82.250977
2023-05-02T08:05:48.768Z,82.720947
2023-05-02T08:06:58.423Z,82.214355
2023-05-02T08:08:08.053Z,81.439209
2023-05-02T08:09:17.722Z,82.861328
2023-05-02T08:10:27.417Z,82.720947
2023-05-02T08:11:36.055Z,82.312012
2023-05-02T08:12:45.746Z,82.720947
2023-05-02T08:13:54.404Z,82.476807
2023-05-02T08:15:03.042Z,81.933594
2023-05-02T08:16:11.776Z,81.427002
2023-05-02T08:17:21.405Z,80.981445
2023-05-02T08:18:31.035Z,80.615234
2023-05-02T08:19:38.678Z,80.81665
2023-05-02T08:20:48.401Z,80.389404
2023-05-02T08:21:58.038Z,80.993652
2023-05-02T08:23:06.661Z,81.463623
2023-05-02T08:24:15.338Z,80.108643
2023-05-02T08:25:24.015Z,80.651855
2023-05-02T08:26:32.688Z,79.907227
2023-05-02T08:27:42.366Z,78.387451
2023-05-02T08:28:51.010Z,79.46167
2023-05-02T08:30:01.295Z,78.210449
2023-05-02T08:31:11.142Z,78.210449
2023-05-02T08:32:19.774Z,77.972412
2023-05-02T08:33:28.448Z,77.67334
2023-05-02T08:34:38.120Z,78.137207
2023-05-02T08:35:47.779Z,77.67334
2023-05-02T08:36:58.459Z,77.46582
2023-05-02T08:38:07.151Z,77.770996
2023-05-02T08:39:15.788Z,77.807617
2023-05-02T08:40:38.080Z,78.479004
2023-05-02T08:41:36.115Z,77.838135
2023-05-02T08:42:45.777Z,76.519775
2023-05-02T08:43:54.422Z,77.026367
2023-05-02T08:45:03.086Z,76.623535
2023-05-02T08:46:12.968Z,77.392578
2023-05-02T08:47:20.594Z,77.191162
2023-05-02T08:48:29.195Z,76.654053
2023-05-02T08:49:38.892Z,75.335693
2023-05-02T08:50:47.566Z,76.147461
2023-05-02T08:51:57.234Z,75.238037
2023-05-02T08:53:07.028Z,75.744629
2023-05-02T08:54:16.750Z,75.744629
2023-05-02T08:55:26.417Z,75.909424
2023-05-02T08:56:35.153Z,74.462891
2023-05-02T08:57:42.797Z,74.523926
2023-05-02T08:58:52.478Z,73.7854
2023-05-02T09:00:01.115Z,73.217773
2023-05-02T09:01:10.818Z,74.224854
2023-05-02T09:02:19.436Z,74.32251
2023-05-02T09:03:29.088Z,74.493408
2023-05-02T09:04:38.912Z,73.248291
2023-05-02T09:05:46.430Z,71.868896
2023-05-02T09:06:54.174Z,71.063232
2023-05-02T09:08:03.807Z,70.965576
2023-05-02T09:09:12.429Z,71.368408
2023-05-02T09:10:23.114Z,71.972656
2023-05-02T09:11:32.788Z,71.600342
2023-05-02T09:12:42.436Z,71.936035
2023-05-02T09:13:51.482Z,72.808838
2023-05-02T09:15:00.072Z,72.607422
2023-05-02T09:16:07.529Z,72.442627
2023-05-02T09:17:17.199Z,72.30835
2023-05-02T09:18:25.864Z,72.137451
2023-05-02T09:19:33.493Z,73.046875
2023-05-02T09:20:42.163Z,73.620605
2023-05-02T09:21:50.848Z,74.633789
2023-05-02T09:23:00.544Z,73.016357
2023-05-02T09:24:08.224Z,73.083496
2023-05-02T09:25:15.854Z,71.734619
2023-05-02T09:26:25.735Z,72.576904
2023-05-02T09:27:36.362Z,70.861816
2023-05-02T09:28:45.017Z,70.996094
2023-05-02T09:29:53.669Z,71.398926
2023-05-02T09:31:03.349Z,71.600342
2023-05-02T09:32:13.068Z,71.398926
2023-05-02T09:33:22.693Z,72.30835
2023-05-02T09:34:30.343Z,71.099854
2023-05-02T09:35:40.037Z,70.690918
2023-05-02T09:36:48.732Z,70.593262
2023-05-02T09:37:58.365Z,70.861816
2023-05-02T09:39:08.025Z,70.355225
2023-05-02T09:40:16.680Z,71.063232
2023-05-02T09:41:26.431Z,69.921875
2023-05-02T09:42:35.150Z,69.720459
2023-05-02T09:43:43.848Z,70.861816
2023-05-02T09:44:53.535Z,70.19043
2023-05-02T09:46:02.268Z,71.099854
2023-05-02T09:47:10.890Z,71.435547
2023-05-02T09:48:19.564Z,71.30127
2023-05-02T09:49:27.206Z,71.166992
2023-05-02T09:50:36.892Z,70.556641
2023-05-02T09:51:45.589Z,70.6604
2023-05-02T09:52:54.245Z,70.019531
2023-05-02T09:54:02.902Z,70.257568
2023-05-02T09:55:12.553Z,71.30127
2023-05-02T09:56:23.878Z,71.166992
2023-05-02T09:57:32.061Z,70.556641
2023-05-02T09:58:40.782Z,70.623779
2023-05-02T09:59:49.402Z,70.324707
2023-05-02T10:00:59.053Z,70.123291
2023-05-02T10:02:09.532Z,69.317627
2023-05-02T10:03:18.231Z,68.511963
2023-05-02T10:04:27.002Z,69.012451
2023-05-02T10:05:36.527Z,69.213867
2023-05-02T10:06:46.296Z,69.818115
2023-05-02T10:07:53.897Z,69.116211
2023-05-02T10:09:02.576Z,69.818115
2023-05-02T10:10:12.247Z,69.549561
2023-05-02T10:11:21.870Z,70.526123
2023-05-02T10:12:30.593Z,69.720459
2023-05-02T10:13:40.228Z,69.415283
2023-05-02T10:14:48.971Z,70.288086
2023-05-02T10:15:58.599Z,69.683838
2023-05-02T10:17:06.211Z,71.032715
2023-05-02T10:18:15.906Z,71.331787
2023-05-02T10:19:25.517Z,71.063232
2023-05-02T10:20:34.171Z,71.331787
2023-05-02T10:21:42.884Z,70.019531
2023-05-02T10:22:52.626Z,70.220947
2023-05-02T10:24:02.290Z,69.683838
2023-05-02T10:25:11.936Z,69.989014
2023-05-02T10:26:20.603Z,69.989014
2023-05-02T10:27:29.284Z,70.422363
2023-05-02T10:28:38.952Z,70.928955
2023-05-02T10:29:48.599Z,71.734619
2023-05-02T10:30:58.278Z,70.727539
2023-05-02T10:32:07.947Z,70.825195
2023-05-02T10:33:17.617Z,70.928955
2023-05-02T10:34:27.275Z,70.593262
2023-05-02T10:35:34.931Z,70.288086
2023-05-02T10:36:42.651Z,69.885254
2023-05-02T10:37:52.317Z,69.854736
2023-05-02T10:39:01.961Z,70.959473
2023-05-02T10:40:11.649Z,70.056152
2023-05-02T10:41:20.271Z,71.063232
2023-05-02T10:42:29.940Z,71.19751
2023-05-02T10:43:39.774Z,70.996094
2023-05-02T10:44:48.476Z,70.727539
2023-05-02T10:45:58.131Z,71.026611
2023-05-02T10:47:07.834Z,71.331787
2023-05-02T10:48:16.504Z,71.600342
2023-05-02T10:49:25.189Z,70.959473
2023-05-02T10:50:33.840Z,70.861816
2023-05-02T10:51:42.471Z,70.153809
2023-05-02T10:52:52.165Z,69.445801
2023-05-02T10:53:59.830Z,70.257568
2023-05-02T10:55:07.533Z,70.288086
2023-05-02T10:56:17.201Z,70.959473
2023-05-02T10:57:25.880Z,70.153809
2023-05-02T10:58:34.697Z,69.750977
2023-05-02T10:59:44.380Z,69.244385
2023-05-02T11:00:53.097Z,70.526123
2023-05-02T11:02:03.567Z,70.324707
2023-05-02T11:03:12.442Z,70.825195
2023-05-02T11:04:22.041Z,70.526123
2023-05-02T11:05:31.756Z,69.720459
2023-05-02T11:06:40.489Z,70.556641
2023-05-02T11:07:49.076Z,71.972656
2023-05-02T11:08:58.758Z,73.852539
2023-05-02T11:10:07.398Z,72.271729
2023-05-02T11:11:17.055Z,73.852539
2023-05-02T11:12:24.691Z,75.366211
2023-05-02T11:13:32.398Z,73.88916
2023-05-02T11:14:42.144Z,74.261475
2023-05-02T11:15:51.782Z,77.093506
2023-05-02T11:17:01.545Z,78.607178
2023-05-02T11:18:09.238Z,79.455566
2023-05-02T11:19:18.222Z,80.023193
2023-05-02T11:20:27.859Z,80.224609
2023-05-02T11:21:36.578Z,80.529785
2023-05-02T11:22:45.251Z,81.030273
2023-05-02T11:23:54.924Z,81.738281
2023-05-02T11:25:04.574Z,80.969238
2023-05-02T11:26:13.267Z,80.664062
2023-05-02T11:27:21.930Z,81.781006
2023-05-02T11:28:30.594Z,81.713867
2023-05-02T11:29:40.292Z,81.652832
2023-05-02T11:30:48.951Z,81.756592
2023-05-02T11:31:56.650Z,81.756592
2023-05-02T11:33:06.350Z,82.904053
2023-05-02T11:34:15.004Z,81.225586
2023-05-02T11:35:24.679Z,81.365967
2023-05-02T11:36:34.343Z,80.731201
2023-05-02T11:37:43.042Z,81.378174
2023-05-02T11:38:52.746Z,81.414795
2023-05-02T11:40:00.412Z,82.775879
2023-05-02T11:41:10.101Z,82.91626
2023-05-02T11:42:19.867Z,83.868408
2023-05-02T11:43:31.468Z,83.599854
2023-05-02T11:44:39.481Z,84.759521
2023-05-02T11:45:48.247Z,88.305664
2023-05-02T11:46:57.870Z,96.337891
2023-05-02T11:48:06.589Z,98.828125
2023-05-02T11:49:15.323Z,99.487305
2023-05-02T11:50:24.873Z,99.993896
2023-05-02T11:51:34.608Z,99.993896
2023-05-02T11:52:44.223Z,99.993896
2023-05-02T11:53:52.911Z,99.993896
2023-05-02T11:55:01.709Z,99.786377
2023-05-02T11:56:11.240Z,99.993896
2023-05-02T11:57:20.905Z,99.993896
2023-05-02T11:58:29.614Z,99.993896
2023-05-02T11:59:39.280Z,99.639893
2023-05-02T12:00:49.004Z,99.432373
2023-05-02T12:01:58.653Z,98.876953
2023-05-02T12:03:06.475Z,97.961426
2023-05-02T12:04:16.119Z,97.039795
2023-05-02T12:05:25.802Z,96.5271
2023-05-02T12:06:33.496Z,96.124268
2023-05-02T12:07:43.159Z,96.282959
2023-05-02T12:08:52.837Z,96.179199
2023-05-02T12:10:01.533Z,96.032715
2023-05-02T12:11:10.177Z,95.666504
2023-05-02T12:12:19.855Z,95.97168
2023-05-02T12:13:29.507Z,96.179199
2023-05-02T12:14:39.278Z,96.075439
2023-05-02T12:15:48.944Z,96.234131
2023-05-02T12:16:56.599Z,96.032715
2023-05-02T12:18:05.313Z,95.928955
2023-05-02T12:19:13.971Z,95.422363
2023-05-02T12:20:22.629Z,95.013428
2023-05-02T12:21:32.346Z,94.952393
2023-05-02T12:22:42.011Z,94.854736
2023-05-02T12:23:51.736Z,94.342041
2023-05-02T12:25:01.675Z,94.445801
2023-05-02T12:26:10.128Z,94.403076
2023-05-02T12:27:19.783Z,94.403076
2023-05-02T12:28:28.472Z,94.256592
2023-05-02T12:29:37.138Z,94.616699
2023-05-02T12:30:46.911Z,94.921875
2023-05-02T12:31:55.575Z,95.288086
2023-05-02T12:33:04.268Z,95.141602
2023-05-02T12:34:13.920Z,95.397949
2023-05-02T12:35:22.593Z,95.153809
2023-05-02T12:36:32.286Z,94.848633
2023-05-02T12:37:41.947Z,94.396973
2023-05-02T12:38:51.663Z,94.293213
2023-05-02T12:40:01.692Z,94.049072
2023-05-02T12:41:11.118Z,93.54248
2023-05-02T12:42:18.866Z,92.987061
2023-05-02T12:43:28.562Z,91.143799
2023-05-02T12:44:38.226Z,91.186523
2023-05-02T12:45:47.898Z,92.102051
2023-05-02T12:46:57.619Z,92.773438
2023-05-02T12:48:06.280Z,90.881348
2023-05-02T12:49:15.984Z,90.06958
2023-05-02T12:50:24.705Z,90.881348
2023-05-02T12:51:34.403Z,91.186523
2023-05-02T12:52:44.017Z,91.552734
2023-05-02T12:53:52.677Z,90.679932
2023-05-02T12:55:02.357Z,89.96582
2023-05-02T12:56:11.028Z,90.942383
2023-05-02T12:57:19.713Z,91.143799
2023-05-02T12:58:29.395Z,91.30249
2023-05-02T12:59:38.146Z,90.393066
2023-05-02T13:00:48.041Z,89.63623
2023-05-02T13:01:57.570Z,89.73999
2023-05-02T13:03:07.369Z,89.025879
2023-05-02T13:04:17.111Z,89.331055
2023-05-02T13:05:25.760Z,88.684082
2023-05-02T13:06:34.470Z,88.07373
2023-05-02T13:07:43.115Z,87.402344
2023-05-02T13:08:51.041Z,86.16333
2023-05-02T13:09:58.880Z,85.961914